createdAt,value
2023-03-31T00:02:49.900Z,14.34
2023-03-31T00:07:55.978Z,14.40
2023-03-31T00:12:58.072Z,14.33
2023-03-31T00:17:59.564Z,14.17
2023-03-31T00:23:01.132Z,14.12
2023-03-31T00:28:02.674Z,13.83
2023-03-31T00:33:04.188Z,13.92
2023-03-31T00:38:06.659Z,14.01
2023-03-31T00:43:21.310Z,14.07
2023-03-31T00:48:23.549Z,13.89
2023-03-31T00:53:29.591Z,13.94
2023-03-31T00:58:31.835Z,13.71
2023-03-31T01:03:33.481Z,13.81
2023-03-31T01:08:35.241Z,13.83
2023-03-31T01:13:39.548Z,13.96
2023-03-31T01:18:44.873Z,14.13
2023-03-31T01:24:11.248Z,14.28
2023-03-31T01:29:12.733Z,14.30
2023-03-31T01:34:32.620Z,14.00
2023-03-31T01:40:12.388Z,14.14
2023-03-31T01:45:48.749Z,13.94
2023-03-31T01:50:50.163Z,13.94
2023-03-31T01:56:18.494Z,14.11
2023-03-31T02:01:44.122Z,14.28
2023-03-31T02:06:51.715Z,14.25
2023-03-31T02:11:54.961Z,14.28
2023-03-31T02:16:59.278Z,14.30
2023-03-31T02:22:04.572Z,14.33
2023-03-31T02:27:21.738Z,14.33
2023-03-31T02:32:35.800Z,14.23
2023-03-31T02:37:39.269Z,14.21
2023-03-31T02:42:42.003Z,14.23
2023-03-31T02:47:43.588Z,14.25
2023-03-31T02:52:51.966Z,14.15
2023-03-31T02:58:18.748Z,14.14
2023-03-31T03:04:06.930Z,14.04
2023-03-31T03:09:45.283Z,14.12
2023-03-31T03:15:00.528Z,14.08
2023-03-31T03:20:03.911Z,13.81
2023-03-31T03:25:07.081Z,13.81
2023-03-31T03:30:10.818Z,13.75
2023-03-31T03:35:12.286Z,13.64
2023-03-31T03:40:13.893Z,13.63
2023-03-31T03:45:15.446Z,13.62
2023-03-31T03:50:17.685Z,13.53
2023-03-31T03:55:19.151Z,13.43
2023-03-31T04:00:20.700Z,13.57
2023-03-31T04:05:22.302Z,13.49
2023-03-31T04:10:23.840Z,13.39
2023-03-31T04:15:25.618Z,13.33
2023-03-31T04:20:27.181Z,13.26
2023-03-31T04:25:28.715Z,13.13
2023-03-31T04:30:30.235Z,13.13
2023-03-31T04:35:32.236Z,12.98
2023-03-31T04:40:33.751Z,13.02
2023-03-31T04:45:35.241Z,13.07
2023-03-31T04:50:37.547Z,13.15
2023-03-31T04:55:39.058Z,13.18
2023-03-31T05:00:40.578Z,13.33
2023-03-31T05:05:42.061Z,13.40
2023-03-31T05:10:43.811Z,13.15
2023-03-31T05:15:45.327Z,13.00
2023-03-31T05:20:47.074Z,12.98
2023-03-31T05:25:48.557Z,13.04
2023-03-31T05:30:50.042Z,13.16
2023-03-31T05:35:51.547Z,13.20
2023-03-31T05:40:53.266Z,13.29
2023-03-31T05:45:54.784Z,13.52
2023-03-31T05:50:57.870Z,13.53
2023-03-31T05:56:01.148Z,13.44
2023-03-31T06:01:13.002Z,13.50
2023-03-31T06:06:15.275Z,13.43
2023-03-31T06:11:19.700Z,13.41
2023-03-31T06:16:21.278Z,13.46
2023-03-31T06:21:22.823Z,13.77
2023-03-31T06:26:24.508Z,14.06
2023-03-31T06:31:26.261Z,14.27
2023-03-31T06:36:27.874Z,14.13
2023-03-31T06:41:29.379Z,14.37
2023-03-31T06:46:31.033Z,14.44
2023-03-31T06:51:32.879Z,14.47
2023-03-31T06:56:34.398Z,14.50
2023-03-31T07:01:36.045Z,14.74
2023-03-31T07:06:37.652Z,15.06
2023-03-31T07:11:39.602Z,15.18
2023-03-31T07:16:41.220Z,15.13
2023-03-31T07:21:42.752Z,15.13
2023-03-31T07:26:44.256Z,14.97
2023-03-31T07:31:47.503Z,14.88
2023-03-31T07:36:49.152Z,14.16
2023-03-31T07:41:50.757Z,13.60
2023-03-31T07:46:52.346Z,13.49
2023-03-31T07:51:53.895Z,13.85
2023-03-31T07:56:55.419Z,14.05
2023-03-31T08:01:57.001Z,14.37
2023-03-31T08:06:58.668Z,14.60
2023-03-31T08:12:00.200Z,14.76
2023-03-31T08:17:01.808Z,14.82
2023-03-31T08:22:03.838Z,14.86
2023-03-31T08:32:13.148Z,15.09
2023-03-31T08:37:14.801Z,15.14
2023-03-31T08:42:22.758Z,15.34
2023-03-31T08:47:27.675Z,15.57
2023-03-31T08:52:44.446Z,15.58
2023-03-31T08:58:24.478Z,15.63
2023-03-31T09:03:45.837Z,15.52
2023-03-31T09:08:47.614Z,15.48
2023-03-31T09:14:17.881Z,15.70
2023-03-31T09:19:47.217Z,15.84
2023-03-31T09:24:59.470Z,15.81
2023-03-31T09:30:13.870Z,15.78
2023-03-31T09:35:22.386Z,16.08
2023-03-31T09:40:26.974Z,15.59
2023-03-31T09:45:30.038Z,14.87
2023-03-31T09:50:36.708Z,14.29
2023-03-31T09:56:01.943Z,14.59
2023-03-31T10:01:07.203Z,15.19
2023-03-31T10:06:11.297Z,15.24
2023-03-31T10:11:13.285Z,15.24
2023-03-31T10:16:24.158Z,15.38
2023-03-31T10:21:35.044Z,15.72
2023-03-31T10:26:37.420Z,15.91
2023-03-31T10:31:39.543Z,16.02
2023-03-31T10:36:47.342Z,16.19
2023-03-31T10:41:52.931Z,16.30
2023-03-31T10:46:54.435Z,16.53
2023-03-31T10:52:00.367Z,16.94
2023-03-31T10:57:04.204Z,17.26
2023-03-31T11:02:33.413Z,17.31
2023-03-31T11:07:44.195Z,17.15
2023-03-31T11:13:07.482Z,16.98
2023-03-31T11:18:27.065Z,16.72
2023-03-31T11:23:42.199Z,16.12
2023-03-31T11:29:14.984Z,15.40
2023-03-31T11:34:28.660Z,14.37
2023-03-31T11:39:54.506Z,14.27
2023-03-31T11:45:14.689Z,14.12
2023-03-31T11:50:26.676Z,14.17
2023-03-31T11:55:31.226Z,14.02
2023-03-31T12:00:40.824Z,14.23
2023-03-31T12:05:57.614Z,14.29
2023-03-31T12:11:04.867Z,14.22
2023-03-31T12:16:10.116Z,14.29
2023-03-31T12:21:12.066Z,13.32
2023-03-31T12:26:37.474Z,13.23
2023-03-31T12:31:43.131Z,13.30
2023-03-31T12:37:00.365Z,13.28
2023-03-31T12:42:20.288Z,12.87
2023-03-31T12:47:28.255Z,12.23
2023-03-31T12:52:52.651Z,11.71
2023-03-31T12:58:23.184Z,11.41
2023-03-31T13:03:33.990Z,11.66
2023-03-31T13:08:58.353Z,12.12
2023-03-31T13:14:02.559Z,12.54
2023-03-31T13:19:05.164Z,12.59
2023-03-31T13:24:07.230Z,12.85
2023-03-31T13:29:20.968Z,12.85
2023-03-31T13:34:22.738Z,12.91
2023-03-31T13:39:36.032Z,12.87
2023-03-31T13:44:56.536Z,13.00
2023-03-31T13:50:32.108Z,13.03
2023-03-31T13:55:42.808Z,13.31
2023-03-31T14:01:05.544Z,13.03
2023-03-31T14:06:18.901Z,13.16
2023-03-31T14:11:23.387Z,13.21
2023-03-31T14:16:26.569Z,13.53
2023-03-31T14:21:41.958Z,13.59
2023-03-31T14:26:49.665Z,13.98
2023-03-31T14:32:02.329Z,14.27
2023-03-31T14:37:10.034Z,14.47
2023-03-31T14:42:14.551Z,14.54
2023-03-31T14:47:22.028Z,14.68
2023-03-31T14:52:23.570Z,14.87
2023-03-31T14:57:35.704Z,14.88
2023-03-31T15:02:42.006Z,15.30
2023-03-31T15:07:43.618Z,15.27
2023-03-31T15:12:45.314Z,15.72
2023-03-31T15:17:48.140Z,15.72
2023-03-31T15:22:49.746Z,15.49
2023-03-31T15:28:04.937Z,15.00
2023-03-31T15:33:18.494Z,14.67
2023-03-31T15:38:21.318Z,13.46
2023-03-31T15:43:49.873Z,12.79
2023-03-31T15:48:53.988Z,12.53
2023-03-31T15:53:55.755Z,12.70
2023-03-31T15:59:01.492Z,13.44
2023-03-31T16:04:08.495Z,13.42
2023-03-31T16:09:19.010Z,13.39
2023-03-31T16:14:28.338Z,12.66
2023-03-31T16:19:38.842Z,11.95
2023-03-31T16:24:40.392Z,12.04
2023-03-31T16:29:42.016Z,11.89
2023-03-31T16:35:01.917Z,11.81
2023-03-31T16:40:03.522Z,11.89
2023-03-31T16:45:14.339Z,11.99
2023-03-31T16:50:16.534Z,12.11
2023-03-31T16:55:18.141Z,12.16
2023-03-31T17:00:20.202Z,12.30
2023-03-31T17:05:21.707Z,12.43
2023-03-31T17:10:23.683Z,12.07
2023-03-31T17:15:25.236Z,12.13
2023-03-31T17:20:26.913Z,11.97
2023-03-31T17:25:28.650Z,12.13
2023-03-31T17:30:31.081Z,12.30
2023-03-31T17:35:32.612Z,12.28
2023-03-31T17:40:34.069Z,12.47
2023-03-31T17:45:35.708Z,12.64
2023-03-31T17:50:39.518Z,12.93
2023-03-31T17:55:45.244Z,13.01
2023-03-31T18:00:46.801Z,13.10
2023-03-31T18:05:48.738Z,13.08
2023-03-31T18:10:51.240Z,13.08
2023-03-31T18:15:53.623Z,13.13
2023-03-31T18:20:57.128Z,13.00
2023-03-31T18:26:01.812Z,12.95
2023-03-31T18:31:05.906Z,13.08
2023-03-31T18:36:09.167Z,13.18
2023-03-31T18:41:11.058Z,13.15
2023-03-31T18:46:13.249Z,13.00
2023-03-31T18:51:14.986Z,12.58
2023-03-31T18:56:16.590Z,11.95
2023-03-31T19:01:18.505Z,11.37
2023-03-31T19:06:20.097Z,11.20
2023-03-31T19:11:21.701Z,11.04
2023-03-31T19:16:23.915Z,10.80
2023-03-31T19:21:25.461Z,10.97
2023-03-31T19:26:28.400Z,11.08
2023-03-31T19:31:33.729Z,11.52
2023-03-31T19:36:36.378Z,11.32
2023-03-31T19:41:37.899Z,11.13
2023-03-31T19:46:39.606Z,10.92
2023-03-31T19:51:41.245Z,11.12
2023-03-31T19:56:42.910Z,11.39
2023-03-31T20:01:44.533Z,11.43
2023-03-31T20:06:47.676Z,11.72
2023-03-31T20:11:50.023Z,11.64
2023-03-31T20:16:51.601Z,11.76
2023-03-31T20:21:53.157Z,11.66
2023-03-31T20:26:54.747Z,11.67
2023-03-31T20:31:56.699Z,11.54
2023-03-31T20:36:58.765Z,11.37
2023-03-31T20:42:00.362Z,11.57
2023-03-31T20:47:02.188Z,11.51
2023-03-31T20:52:19.005Z,11.44
2023-03-31T20:57:21.213Z,11.69
2023-03-31T21:02:24.728Z,11.67
2023-03-31T21:07:26.407Z,11.85
2023-03-31T21:12:29.568Z,11.75
2023-03-31T21:17:31.485Z,11.64
2023-03-31T21:22:33.290Z,11.56
2023-03-31T21:27:34.995Z,11.54
2023-03-31T21:32:36.546Z,11.48
2023-03-31T21:37:38.145Z,11.56
2023-03-31T21:42:40.838Z,11.79
2023-03-31T21:47:42.538Z,12.04
2023-03-31T21:52:44.191Z,11.91
2023-03-31T21:57:45.828Z,11.93
2023-03-31T22:02:47.374Z,11.87
2023-03-31T22:07:48.861Z,11.63
2023-03-31T22:12:50.487Z,11.65
2023-03-31T22:17:52.154Z,11.63
2023-03-31T22:22:53.730Z,11.99
2023-03-31T22:27:55.206Z,11.76
2023-03-31T22:32:56.717Z,11.69
2023-03-31T22:37:58.679Z,11.64
2023-03-31T22:43:00.387Z,11.97
2023-03-31T22:48:02.257Z,11.83
2023-03-31T22:53:03.964Z,11.55
2023-03-31T22:58:05.816Z,11.84
2023-03-31T23:03:07.584Z,11.82
2023-03-31T23:08:09.244Z,11.66
2023-03-31T23:13:11.179Z,11.55
2023-03-31T23:18:12.926Z,11.69
2023-03-31T23:23:14.938Z,11.79
2023-03-31T23:33:40.232Z,11.38
2023-03-31T23:44:06.462Z,11.45
2023-03-31T23:49:08.316Z,11.44
2023-03-31T23:54:10.088Z,11.65
2023-03-31T23:59:11.782Z,11.65
